sensor_id;sensor_type;location;lat;lon;timestamp;P1;durP1;ratioP1;P2;durP2;ratioP2
21591;SDS011;10958;50.892;3.992;2022-08-11T00:00:01;2.97;;;2.10;;
21591;SDS011;10958;50.892;3.992;2022-08-11T00:05:16;3.65;;;2.10;;
21591;SDS011;10958;50.892;3.992;2022-08-11T00:10:20;7.15;;;2.25;;
21591;SDS011;10958;50.892;3.992;2022-08-11T00:12:59;2.47;;;2.08;;
21591;SDS011;10958;50.892;3.992;2022-08-11T00:15:36;6.03;;;2.25;;
21591;SDS011;10958;50.892;3.992;2022-08-11T00:18:05;3.58;;;2.78;;
21591;SDS011;10958;50.892;3.992;2022-08-11T00:20:34;4.35;;;2.10;;
21591;SDS011;10958;50.892;3.992;2022-08-11T00:23:09;6.35;;;2.38;;
21591;SDS011;10958;50.892;3.992;2022-08-11T00:25:41;6.60;;;2.35;;
21591;SDS011;10958;50.892;3.992;2022-08-11T00:28:25;5.75;;;2.40;;
21591;SDS011;10958;50.892;3.992;2022-08-11T00:31:00;4.05;;;2.28;;
21591;SDS011;10958;50.892;3.992;2022-08-11T00:33:34;5.63;;;2.35;;
21591;SDS011;10958;50.892;3.992;2022-08-11T00:36:04;5.75;;;2.42;;
21591;SDS011;10958;50.892;3.992;2022-08-11T00:38:34;12.60;;;2.38;;
21591;SDS011;10958;50.892;3.992;2022-08-11T00:41:07;4.07;;;2.30;;
21591;SDS011;10958;50.892;3.992;2022-08-11T00:52:16;3.67;;;2.35;;
21591;SDS011;10958;50.892;3.992;2022-08-11T00:55:13;4.82;;;1.70;;
21591;SDS011;10958;50.892;3.992;2022-08-11T01:17:08;8.13;;;2.53;;
21591;SDS011;10958;50.892;3.992;2022-08-11T01:20:06;7.53;;;2.38;;
21591;SDS011;10958;50.892;3.992;2022-08-11T01:23:11;5.80;;;2.33;;
21591;SDS011;10958;50.892;3.992;2022-08-11T01:42:41;2.92;;;2.20;;
21591;SDS011;10958;50.892;3.992;2022-08-11T01:54:14;4.22;;;2.50;;
21591;SDS011;10958;50.892;3.992;2022-08-11T01:59:46;7.28;;;2.67;;
21591;SDS011;10958;50.892;3.992;2022-08-11T02:02:32;4.45;;;2.50;;
21591;SDS011;10958;50.892;3.992;2022-08-11T02:07:54;4.97;;;2.63;;
21591;SDS011;10958;50.892;3.992;2022-08-11T02:13:46;7.20;;;2.67;;
21591;SDS011;10958;50.892;3.992;2022-08-11T02:16:25;4.68;;;2.58;;
21591;SDS011;10958;50.892;3.992;2022-08-11T02:26:04;5.68;;;2.67;;
21591;SDS011;10958;50.892;3.992;2022-08-11T02:34:48;5.05;;;2.70;;
21591;SDS011;10958;50.892;3.992;2022-08-11T02:40:47;4.55;;;2.50;;
21591;SDS011;10958;50.892;3.992;2022-08-11T02:43:59;5.05;;;2.80;;
21591;SDS011;10958;50.892;3.992;2022-08-11T02:54:52;5.35;;;3.25;;
21591;SDS011;10958;50.892;3.992;2022-08-11T03:00:44;5.13;;;2.80;;
21591;SDS011;10958;50.892;3.992;2022-08-11T03:06:03;4.75;;;2.92;;
21591;SDS011;10958;50.892;3.992;2022-08-11T03:08:44;8.10;;;3.20;;
21591;SDS011;10958;50.892;3.992;2022-08-11T03:11:25;5.85;;;3.25;;
21591;SDS011;10958;50.892;3.992;2022-08-11T03:14:40;7.20;;;2.88;;
21591;SDS011;10958;50.892;3.992;2022-08-11T03:20:50;5.18;;;3.10;;
21591;SDS011;10958;50.892;3.992;2022-08-11T03:23:36;4.07;;;2.83;;
21591;SDS011;10958;50.892;3.992;2022-08-11T03:28:58;7.00;;;3.05;;
21591;SDS011;10958;50.892;3.992;2022-08-11T03:31:27;4.88;;;3.40;;
21591;SDS011;10958;50.892;3.992;2022-08-11T03:34:16;7.30;;;3.13;;
21591;SDS011;10958;50.892;3.992;2022-08-11T03:40:15;3.10;;;2.80;;
21591;SDS011;10958;50.892;3.992;2022-08-11T03:43:23;6.25;;;3.22;;
21591;SDS011;10958;50.892;3.992;2022-08-11T03:51:31;7.25;;;3.67;;
21591;SDS011;10958;50.892;3.992;2022-08-11T03:54:37;6.38;;;3.55;;
21591;SDS011;10958;50.892;3.992;2022-08-11T04:08:10;5.85;;;3.20;;
21591;SDS011;10958;50.892;3.992;2022-08-11T04:35:05;4.68;;;3.22;;
21591;SDS011;10958;50.892;3.992;2022-08-11T04:49:25;7.07;;;3.58;;
21591;SDS011;10958;50.892;3.992;2022-08-11T04:58:51;8.23;;;4.07;;
21591;SDS011;10958;50.892;3.992;2022-08-11T05:16:54;6.10;;;4.20;;
21591;SDS011;10958;50.892;3.992;2022-08-11T05:22:12;8.35;;;4.00;;
21591;SDS011;10958;50.892;3.992;2022-08-11T05:25:06;8.45;;;4.20;;
21591;SDS011;10958;50.892;3.992;2022-08-11T05:31:18;9.18;;;4.43;;
21591;SDS011;10958;50.892;3.992;2022-08-11T05:34:28;7.85;;;4.28;;
21591;SDS011;10958;50.892;3.992;2022-08-11T05:37:30;4.82;;;3.60;;
21591;SDS011;10958;50.892;3.992;2022-08-11T05:40:06;7.07;;;4.22;;
21591;SDS011;10958;50.892;3.992;2022-08-11T05:42:59;7.70;;;4.30;;
21591;SDS011;10958;50.892;3.992;2022-08-11T05:45:59;5.60;;;3.78;;
21591;SDS011;10958;50.892;3.992;2022-08-11T05:48:45;9.30;;;4.28;;
21591;SDS011;10958;50.892;3.992;2022-08-11T05:51:34;5.20;;;3.80;;
21591;SDS011;10958;50.892;3.992;2022-08-11T05:54:19;11.60;;;4.20;;
21591;SDS011;10958;50.892;3.992;2022-08-11T05:57:05;7.13;;;4.13;;
21591;SDS011;10958;50.892;3.992;2022-08-11T05:59:31;5.78;;;4.55;;
21591;SDS011;10958;50.892;3.992;2022-08-11T06:04:33;8.80;;;4.13;;
21591;SDS011;10958;50.892;3.992;2022-08-11T06:09:53;7.93;;;4.40;;
21591;SDS011;10958;50.892;3.992;2022-08-11T06:14:48;9.55;;;4.40;;
21591;SDS011;10958;50.892;3.992;2022-08-11T06:17:21;7.13;;;4.10;;
21591;SDS011;10958;50.892;3.992;2022-08-11T06:19:56;7.13;;;4.38;;
21591;SDS011;10958;50.892;3.992;2022-08-11T06:22:35;7.95;;;3.95;;
21591;SDS011;10958;50.892;3.992;2022-08-11T06:25:02;8.00;;;4.10;;
21591;SDS011;10958;50.892;3.992;2022-08-11T06:27:30;8.97;;;4.03;;
21591;SDS011;10958;50.892;3.992;2022-08-11T06:29:58;11.85;;;4.13;;
21591;SDS011;10958;50.892;3.992;2022-08-11T06:32:37;5.03;;;3.92;;
21591;SDS011;10958;50.892;3.992;2022-08-11T06:35:15;5.50;;;4.28;;
21591;SDS011;10958;50.892;3.992;2022-08-11T06:43:48;6.15;;;3.78;;
21591;SDS011;10958;50.892;3.992;2022-08-11T06:46:23;6.57;;;4.20;;
21591;SDS011;10958;50.892;3.992;2022-08-11T06:48:58;8.68;;;4.40;;
21591;SDS011;10958;50.892;3.992;2022-08-11T06:51:26;7.32;;;4.10;;
21591;SDS011;10958;50.892;3.992;2022-08-11T06:53:54;8.70;;;3.70;;
21591;SDS011;10958;50.892;3.992;2022-08-11T06:56:24;7.32;;;3.60;;
21591;SDS011;10958;50.892;3.992;2022-08-11T06:59:11;7.90;;;3.40;;
21591;SDS011;10958;50.892;3.992;2022-08-11T07:02:05;4.95;;;3.40;;
21591;SDS011;10958;50.892;3.992;2022-08-11T07:04:39;9.30;;;3.45;;
21591;SDS011;10958;50.892;3.992;2022-08-11T07:13:24;7.60;;;3.70;;
21591;SDS011;10958;50.892;3.992;2022-08-11T07:16:11;8.52;;;3.20;;
21591;SDS011;10958;50.892;3.992;2022-08-11T07:18:42;5.70;;;3.40;;
21591;SDS011;10958;50.892;3.992;2022-08-11T07:21:31;5.50;;;3.33;;
21591;SDS011;10958;50.892;3.992;2022-08-11T07:24:24;10.15;;;4.05;;
21591;SDS011;10958;50.892;3.992;2022-08-11T07:27:13;9.13;;;3.45;;
21591;SDS011;10958;50.892;3.992;2022-08-11T07:30:04;4.93;;;3.38;;
21591;SDS011;10958;50.892;3.992;2022-08-11T07:32:34;9.80;;;3.42;;
21591;SDS011;10958;50.892;3.992;2022-08-11T07:40:28;6.78;;;3.20;;
21591;SDS011;10958;50.892;3.992;2022-08-11T07:42:54;10.73;;;3.13;;
21591;SDS011;10958;50.892;3.992;2022-08-11T07:45:21;5.38;;;3.63;;
21591;SDS011;10958;50.892;3.992;2022-08-11T07:48:07;10.18;;;3.55;;
21591;SDS011;10958;50.892;3.992;2022-08-11T07:50:53;7.32;;;2.83;;
21591;SDS011;10958;50.892;3.992;2022-08-11T07:53:38;8.95;;;3.00;;
21591;SDS011;10958;50.892;3.992;2022-08-11T07:56:04;5.43;;;3.05;;
21591;SDS011;10958;50.892;3.992;2022-08-11T07:58:31;7.75;;;3.22;;
21591;SDS011;10958;50.892;3.992;2022-08-11T08:01:23;7.43;;;2.90;;
21591;SDS011;10958;50.892;3.992;2022-08-11T08:04:08;6.50;;;3.05;;
21591;SDS011;10958;50.892;3.992;2022-08-11T08:06:56;5.57;;;2.92;;
21591;SDS011;10958;50.892;3.992;2022-08-11T08:09:56;6.03;;;3.25;;
21591;SDS011;10958;50.892;3.992;2022-08-11T08:12:41;4.85;;;2.72;;
21591;SDS011;10958;50.892;3.992;2022-08-11T08:18:46;10.32;;;3.33;;
21591;SDS011;10958;50.892;3.992;2022-08-11T08:21:12;5.88;;;3.08;;
21591;SDS011;10958;50.892;3.992;2022-08-11T08:23:40;7.95;;;3.30;;
21591;SDS011;10958;50.892;3.992;2022-08-11T08:26:08;7.18;;;2.70;;
21591;SDS011;10958;50.892;3.992;2022-08-11T08:28:56;9.65;;;3.30;;
21591;SDS011;10958;50.892;3.992;2022-08-11T08:31:44;6.38;;;3.53;;
21591;SDS011;10958;50.892;3.992;2022-08-11T08:36:40;6.38;;;3.33;;
21591;SDS011;10958;50.892;3.992;2022-08-11T08:39:08;10.65;;;3.38;;
21591;SDS011;10958;50.892;3.992;2022-08-11T08:41:34;5.47;;;3.05;;
21591;SDS011;10958;50.892;3.992;2022-08-11T08:44:03;6.80;;;3.25;;
21591;SDS011;10958;50.892;3.992;2022-08-11T08:54:37;6.60;;;3.03;;
21591;SDS011;10958;50.892;3.992;2022-08-11T08:57:06;5.45;;;2.90;;
21591;SDS011;10958;50.892;3.992;2022-08-11T08:59:38;11.23;;;3.00;;
21591;SDS011;10958;50.892;3.992;2022-08-11T09:02:07;7.05;;;3.05;;
21591;SDS011;10958;50.892;3.992;2022-08-11T09:04:44;3.65;;;2.70;;
21591;SDS011;10958;50.892;3.992;2022-08-11T09:07:11;5.35;;;2.47;;
21591;SDS011;10958;50.892;3.992;2022-08-11T09:12:25;5.72;;;2.45;;
21591;SDS011;10958;50.892;3.992;2022-08-11T09:15:05;7.25;;;2.67;;
21591;SDS011;10958;50.892;3.992;2022-08-11T09:17:40;5.03;;;2.70;;
21591;SDS011;10958;50.892;3.992;2022-08-11T09:20:14;4.75;;;2.35;;
21591;SDS011;10958;50.892;3.992;2022-08-11T09:22:46;5.90;;;2.50;;
21591;SDS011;10958;50.892;3.992;2022-08-11T09:25:32;3.47;;;2.50;;
21591;SDS011;10958;50.892;3.992;2022-08-11T09:28:17;6.50;;;2.67;;
21591;SDS011;10958;50.892;3.992;2022-08-11T09:30:46;8.15;;;2.33;;
21591;SDS011;10958;50.892;3.992;2022-08-11T09:33:18;9.48;;;3.30;;
21591;SDS011;10958;50.892;3.992;2022-08-11T09:35:45;4.60;;;2.80;;
21591;SDS011;10958;50.892;3.992;2022-08-11T09:38:14;7.75;;;2.45;;
21591;SDS011;10958;50.892;3.992;2022-08-11T09:41:00;4.65;;;2.65;;
21591;SDS011;10958;50.892;3.992;2022-08-11T09:43:32;8.50;;;2.83;;
21591;SDS011;10958;50.892;3.992;2022-08-11T09:46:21;7.07;;;2.90;;
21591;SDS011;10958;50.892;3.992;2022-08-11T09:48:50;3.88;;;2.53;;
21591;SDS011;10958;50.892;3.992;2022-08-11T09:51:18;3.67;;;2.83;;
21591;SDS011;10958;50.892;3.992;2022-08-11T09:53:46;8.63;;;2.53;;
21591;SDS011;10958;50.892;3.992;2022-08-11T09:56:14;4.82;;;2.60;;
21591;SDS011;10958;50.892;3.992;2022-08-11T09:59:01;7.20;;;2.67;;
21591;SDS011;10958;50.892;3.992;2022-08-11T10:03:34;3.03;;;2.50;;
21591;SDS011;10958;50.892;3.992;2022-08-11T10:06:03;6.38;;;2.50;;
21591;SDS011;10958;50.892;3.992;2022-08-11T10:08:50;7.45;;;2.63;;
21591;SDS011;10958;50.892;3.992;2022-08-11T10:13:45;3.75;;;2.92;;
21591;SDS011;10958;50.892;3.992;2022-08-11T10:16:34;4.43;;;2.55;;
21591;SDS011;10958;50.892;3.992;2022-08-11T10:19:04;6.75;;;2.63;;
21591;SDS011;10958;50.892;3.992;2022-08-11T10:21:40;5.57;;;2.65;;
21591;SDS011;10958;50.892;3.992;2022-08-11T10:24:34;5.45;;;2.30;;
21591;SDS011;10958;50.892;3.992;2022-08-11T10:27:18;7.22;;;2.60;;
21591;SDS011;10958;50.892;3.992;2022-08-11T10:29:44;9.88;;;2.53;;
21591;SDS011;10958;50.892;3.992;2022-08-11T10:32:29;4.72;;;2.22;;
21591;SDS011;10958;50.892;3.992;2022-08-11T10:35:15;2.70;;;2.03;;
21591;SDS011;10958;50.892;3.992;2022-08-11T10:37:43;4.93;;;2.33;;
21591;SDS011;10958;50.892;3.992;2022-08-11T10:42:41;6.45;;;2.70;;
21591;SDS011;10958;50.892;3.992;2022-08-11T10:45:26;5.68;;;2.88;;
21591;SDS011;10958;50.892;3.992;2022-08-11T10:48:30;7.90;;;3.03;;
21591;SDS011;10958;50.892;3.992;2022-08-11T10:51:00;8.60;;;2.50;;
21591;SDS011;10958;50.892;3.992;2022-08-11T10:53:40;5.80;;;2.30;;
21591;SDS011;10958;50.892;3.992;2022-08-11T10:56:32;5.45;;;2.20;;
21591;SDS011;10958;50.892;3.992;2022-08-11T10:59:20;5.80;;;2.92;;
21591;SDS011;10958;50.892;3.992;2022-08-11T11:01:48;3.67;;;2.30;;
21591;SDS011;10958;50.892;3.992;2022-08-11T11:04:17;5.35;;;2.90;;
21591;SDS011;10958;50.892;3.992;2022-08-11T11:09:31;4.93;;;2.75;;
21591;SDS011;10958;50.892;3.992;2022-08-11T11:12:06;6.07;;;2.58;;
21591;SDS011;10958;50.892;3.992;2022-08-11T11:14:54;6.03;;;2.63;;
21591;SDS011;10958;50.892;3.992;2022-08-11T11:17:42;7.70;;;2.88;;
21591;SDS011;10958;50.892;3.992;2022-08-11T11:20:32;5.72;;;2.70;;
21591;SDS011;10958;50.892;3.992;2022-08-11T11:23:16;4.90;;;2.80;;
21591;SDS011;10958;50.892;3.992;2022-08-11T11:37:24;10.75;;;2.50;;
21591;SDS011;10958;50.892;3.992;2022-08-11T11:39:51;6.00;;;2.78;;
21591;SDS011;10958;50.892;3.992;2022-08-11T11:42:18;5.57;;;2.70;;
21591;SDS011;10958;50.892;3.992;2022-08-11T11:44:45;3.75;;;2.42;;
21591;SDS011;10958;50.892;3.992;2022-08-11T11:47:12;3.65;;;2.30;;
21591;SDS011;10958;50.892;3.992;2022-08-11T11:49:40;7.70;;;2.92;;
21591;SDS011;10958;50.892;3.992;2022-08-11T11:52:08;5.03;;;2.50;;
21591;SDS011;10958;50.892;3.992;2022-08-11T11:54:44;5.50;;;2.58;;
21591;SDS011;10958;50.892;3.992;2022-08-11T11:57:15;3.97;;;2.63;;
21591;SDS011;10958;50.892;3.992;2022-08-11T12:00:00;4.50;;;2.40;;
21591;SDS011;10958;50.892;3.992;2022-08-11T12:02:48;3.90;;;2.30;;
21591;SDS011;10958;50.892;3.992;2022-08-11T12:05:15;6.20;;;2.88;;
21591;SDS011;10958;50.892;3.992;2022-08-11T12:07:41;6.97;;;2.58;;
21591;SDS011;10958;50.892;3.992;2022-08-11T12:10:26;2.92;;;2.17;;
21591;SDS011;10958;50.892;3.992;2022-08-11T12:12:53;5.18;;;2.20;;
21591;SDS011;10958;50.892;3.992;2022-08-11T12:15:38;3.65;;;2.70;;
21591;SDS011;10958;50.892;3.992;2022-08-11T12:18:04;6.03;;;2.40;;
21591;SDS011;10958;50.892;3.992;2022-08-11T12:20:30;5.47;;;2.38;;
21591;SDS011;10958;50.892;3.992;2022-08-11T12:22:56;4.78;;;2.90;;
21591;SDS011;10958;50.892;3.992;2022-08-11T12:25:41;3.25;;;2.28;;
21591;SDS011;10958;50.892;3.992;2022-08-11T12:39:21;5.22;;;2.65;;
21591;SDS011;10958;50.892;3.992;2022-08-11T12:42:10;3.40;;;2.47;;
21591;SDS011;10958;50.892;3.992;2022-08-11T12:44:58;2.90;;;2.70;;
21591;SDS011;10958;50.892;3.992;2022-08-11T12:47:46;8.50;;;2.83;;
21591;SDS011;10958;50.892;3.992;2022-08-11T12:50:33;3.65;;;2.28;;
21591;SDS011;10958;50.892;3.992;2022-08-11T12:53:22;6.85;;;2.60;;
21591;SDS011;10958;50.892;3.992;2022-08-11T12:55:53;5.32;;;2.42;;
21591;SDS011;10958;50.892;3.992;2022-08-11T12:58:40;7.00;;;2.60;;
21591;SDS011;10958;50.892;3.992;2022-08-11T13:01:07;2.33;;;2.13;;
21591;SDS011;10958;50.892;3.992;2022-08-11T13:03:51;4.82;;;2.67;;
21591;SDS011;10958;50.892;3.992;2022-08-11T13:06:37;4.45;;;2.58;;
21591;SDS011;10958;50.892;3.992;2022-08-11T13:09:05;3.20;;;2.53;;
21591;SDS011;10958;50.892;3.992;2022-08-11T13:11:33;4.93;;;2.70;;
21591;SDS011;10958;50.892;3.992;2022-08-11T13:14:20;4.63;;;2.90;;
21591;SDS011;10958;50.892;3.992;2022-08-11T13:16:46;5.45;;;3.33;;
21591;SDS011;10958;50.892;3.992;2022-08-11T13:19:32;4.65;;;2.60;;
21591;SDS011;10958;50.892;3.992;2022-08-11T13:21:58;6.53;;;2.85;;
21591;SDS011;10958;50.892;3.992;2022-08-11T13:24:26;4.20;;;2.47;;
21591;SDS011;10958;50.892;3.992;2022-08-11T13:26:52;11.52;;;2.50;;
21591;SDS011;10958;50.892;3.992;2022-08-11T13:29:23;4.32;;;2.80;;
21591;SDS011;10958;50.892;3.992;2022-08-11T13:31:50;4.43;;;2.72;;
21591;SDS011;10958;50.892;3.992;2022-08-11T13:34:18;8.57;;;2.97;;
21591;SDS011;10958;50.892;3.992;2022-08-11T13:36:45;8.10;;;2.55;;
21591;SDS011;10958;50.892;3.992;2022-08-11T13:39:15;6.40;;;2.70;;
21591;SDS011;10958;50.892;3.992;2022-08-11T13:41:50;3.38;;;2.90;;
21591;SDS011;10958;50.892;3.992;2022-08-11T13:44:19;6.85;;;2.80;;
21591;SDS011;10958;50.892;3.992;2022-08-11T13:46:45;5.72;;;2.58;;
21591;SDS011;10958;50.892;3.992;2022-08-11T13:49:13;6.50;;;3.00;;
21591;SDS011;10958;50.892;3.992;2022-08-11T13:51:40;6.78;;;2.80;;
21591;SDS011;10958;50.892;3.992;2022-08-11T13:54:08;2.85;;;2.45;;
21591;SDS011;10958;50.892;3.992;2022-08-11T13:56:41;6.43;;;2.33;;
21591;SDS011;10958;50.892;3.992;2022-08-11T13:59:10;6.80;;;2.70;;
21591;SDS011;10958;50.892;3.992;2022-08-11T14:01:40;4.47;;;2.70;;
21591;SDS011;10958;50.892;3.992;2022-08-11T14:04:10;3.72;;;2.40;;
21591;SDS011;10958;50.892;3.992;2022-08-11T14:06:40;3.05;;;2.60;;
21591;SDS011;10958;50.892;3.992;2022-08-11T14:09:14;4.65;;;2.60;;
21591;SDS011;10958;50.892;3.992;2022-08-11T14:11:46;7.63;;;2.95;;
21591;SDS011;10958;50.892;3.992;2022-08-11T14:14:32;3.60;;;2.33;;
21591;SDS011;10958;50.892;3.992;2022-08-11T14:17:00;4.28;;;2.20;;
21591;SDS011;10958;50.892;3.992;2022-08-11T14:19:31;5.32;;;2.40;;
21591;SDS011;10958;50.892;3.992;2022-08-11T14:21:59;2.88;;;1.92;;
21591;SDS011;10958;50.892;3.992;2022-08-11T14:24:36;3.20;;;2.40;;
21591;SDS011;10958;50.892;3.992;2022-08-11T14:27:08;3.75;;;2.30;;
21591;SDS011;10958;50.892;3.992;2022-08-11T14:29:36;5.90;;;2.45;;
21591;SDS011;10958;50.892;3.992;2022-08-11T14:32:06;8.27;;;2.90;;
21591;SDS011;10958;50.892;3.992;2022-08-11T14:34:34;3.17;;;2.28;;
21591;SDS011;10958;50.892;3.992;2022-08-11T14:37:04;4.88;;;2.10;;
21591;SDS011;10958;50.892;3.992;2022-08-11T14:39:45;2.65;;;2.42;;
21591;SDS011;10958;50.892;3.992;2022-08-11T14:42:15;6.70;;;2.30;;
21591;SDS011;10958;50.892;3.992;2022-08-11T14:45:02;7.07;;;2.42;;
21591;SDS011;10958;50.892;3.992;2022-08-11T14:48:01;3.75;;;2.50;;
21591;SDS011;10958;50.892;3.992;2022-08-11T14:50:30;6.97;;;2.22;;
21591;SDS011;10958;50.892;3.992;2022-08-11T14:53:01;2.83;;;2.22;;
21591;SDS011;10958;50.892;3.992;2022-08-11T14:55:37;3.50;;;2.30;;
21591;SDS011;10958;50.892;3.992;2022-08-11T14:58:25;3.03;;;2.20;;
21591;SDS011;10958;50.892;3.992;2022-08-11T15:03:23;5.25;;;2.28;;
21591;SDS011;10958;50.892;3.992;2022-08-11T15:08:17;12.30;;;2.28;;
21591;SDS011;10958;50.892;3.992;2022-08-11T15:10:44;2.20;;;1.88;;
21591;SDS011;10958;50.892;3.992;2022-08-11T15:13:15;3.63;;;1.95;;
21591;SDS011;10958;50.892;3.992;2022-08-11T15:15:44;5.50;;;2.28;;
21591;SDS011;10958;50.892;3.992;2022-08-11T15:18:29;2.88;;;2.10;;
21591;SDS011;10958;50.892;3.992;2022-08-11T15:20:56;3.33;;;2.28;;
21591;SDS011;10958;50.892;3.992;2022-08-11T15:23:40;4.15;;;1.80;;
21591;SDS011;10958;50.892;3.992;2022-08-11T15:26:27;7.00;;;2.10;;
21591;SDS011;10958;50.892;3.992;2022-08-11T15:29:19;7.63;;;2.10;;
21591;SDS011;10958;50.892;3.992;2022-08-11T15:32:07;3.97;;;2.00;;
21591;SDS011;10958;50.892;3.992;2022-08-11T15:34:55;3.47;;;2.10;;
21591;SDS011;10958;50.892;3.992;2022-08-11T15:37:43;2.92;;;2.25;;
21591;SDS011;10958;50.892;3.992;2022-08-11T15:43:25;4.57;;;2.08;;
21591;SDS011;10958;50.892;3.992;2022-08-11T15:46:18;5.65;;;2.22;;
21591;SDS011;10958;50.892;3.992;2022-08-11T15:49:12;5.65;;;2.10;;
21591;SDS011;10958;50.892;3.992;2022-08-11T15:51:44;3.35;;;2.22;;
21591;SDS011;10958;50.892;3.992;2022-08-11T15:54:16;5.50;;;2.28;;
21591;SDS011;10958;50.892;3.992;2022-08-11T15:56:45;3.88;;;2.08;;
21591;SDS011;10958;50.892;3.992;2022-08-11T15:59:15;4.20;;;1.92;;
21591;SDS011;10958;50.892;3.992;2022-08-11T16:02:01;3.78;;;1.85;;
21591;SDS011;10958;50.892;3.992;2022-08-11T16:04:47;5.28;;;2.30;;
21591;SDS011;10958;50.892;3.992;2022-08-11T16:07:15;4.00;;;2.08;;
21591;SDS011;10958;50.892;3.992;2022-08-11T16:12:15;4.32;;;2.40;;
21591;SDS011;10958;50.892;3.992;2022-08-11T16:14:55;4.75;;;2.33;;
21591;SDS011;10958;50.892;3.992;2022-08-11T16:17:43;5.93;;;2.58;;
21591;SDS011;10958;50.892;3.992;2022-08-11T16:20:13;4.50;;;2.08;;
21591;SDS011;10958;50.892;3.992;2022-08-11T16:22:44;4.32;;;2.20;;
21591;SDS011;10958;50.892;3.992;2022-08-11T16:25:16;6.88;;;2.78;;
21591;SDS011;10958;50.892;3.992;2022-08-11T16:27:56;3.40;;;2.28;;
21591;SDS011;10958;50.892;3.992;2022-08-11T16:30:30;2.80;;;2.10;;
21591;SDS011;10958;50.892;3.992;2022-08-11T16:33:00;5.63;;;2.50;;
21591;SDS011;10958;50.892;3.992;2022-08-11T16:35:34;6.13;;;2.63;;
21591;SDS011;10958;50.892;3.992;2022-08-11T16:38:21;5.13;;;2.42;;
21591;SDS011;10958;50.892;3.992;2022-08-11T16:41:00;5.22;;;2.53;;
21591;SDS011;10958;50.892;3.992;2022-08-11T16:43:33;2.63;;;2.30;;
21591;SDS011;10958;50.892;3.992;2022-08-11T16:46:33;6.55;;;2.70;;
21591;SDS011;10958;50.892;3.992;2022-08-11T16:51:46;3.72;;;2.50;;
21591;SDS011;10958;50.892;3.992;2022-08-11T16:54:12;3.13;;;2.83;;
21591;SDS011;10958;50.892;3.992;2022-08-11T16:59:19;9.60;;;2.40;;
21591;SDS011;10958;50.892;3.992;2022-08-11T17:01:55;3.28;;;2.40;;
21591;SDS011;10958;50.892;3.992;2022-08-11T17:04:45;4.75;;;2.88;;
21591;SDS011;10958;50.892;3.992;2022-08-11T17:07:35;5.82;;;2.53;;
21591;SDS011;10958;50.892;3.992;2022-08-11T17:10:24;6.20;;;2.60;;
21591;SDS011;10958;50.892;3.992;2022-08-11T17:13:24;5.30;;;2.60;;
21591;SDS011;10958;50.892;3.992;2022-08-11T17:16:07;6.22;;;2.95;;
21591;SDS011;10958;50.892;3.992;2022-08-11T17:23:49;5.72;;;2.40;;
21591;SDS011;10958;50.892;3.992;2022-08-11T17:26:21;5.72;;;2.35;;
21591;SDS011;10958;50.892;3.992;2022-08-11T17:28:52;5.45;;;2.70;;
21591;SDS011;10958;50.892;3.992;2022-08-11T17:31:22;3.65;;;2.20;;
21591;SDS011;10958;50.892;3.992;2022-08-11T17:34:07;3.35;;;2.63;;
21591;SDS011;10958;50.892;3.992;2022-08-11T17:36:53;5.28;;;2.33;;
21591;SDS011;10958;50.892;3.992;2022-08-11T17:39:20;3.03;;;2.20;;
21591;SDS011;10958;50.892;3.992;2022-08-11T17:41:52;5.18;;;2.20;;
21591;SDS011;10958;50.892;3.992;2022-08-11T17:44:36;5.53;;;2.50;;
21591;SDS011;10958;50.892;3.992;2022-08-11T17:47:23;5.82;;;2.60;;
21591;SDS011;10958;50.892;3.992;2022-08-11T17:50:08;5.03;;;2.10;;
21591;SDS011;10958;50.892;3.992;2022-08-11T17:55:22;4.20;;;2.10;;
21591;SDS011;10958;50.892;3.992;2022-08-11T17:58:07;3.30;;;2.50;;
21591;SDS011;10958;50.892;3.992;2022-08-11T18:00:52;2.50;;;2.15;;
21591;SDS011;10958;50.892;3.992;2022-08-11T18:03:20;4.32;;;2.47;;
21591;SDS011;10958;50.892;3.992;2022-08-11T18:05:56;2.97;;;2.15;;
21591;SDS011;10958;50.892;3.992;2022-08-11T18:08:29;5.72;;;2.50;;
21591;SDS011;10958;50.892;3.992;2022-08-11T18:11:15;5.72;;;2.17;;
21591;SDS011;10958;50.892;3.992;2022-08-11T18:14:01;4.38;;;2.20;;
21591;SDS011;10958;50.892;3.992;2022-08-11T18:16:48;5.37;;;2.57;;
21591;SDS011;10958;50.892;3.992;2022-08-11T18:19:33;8.00;;;2.55;;
21591;SDS011;10958;50.892;3.992;2022-08-11T18:22:28;7.85;;;2.33;;
21591;SDS011;10958;50.892;3.992;2022-08-11T18:25:22;5.25;;;2.50;;
21591;SDS011;10958;50.892;3.992;2022-08-11T18:28:10;10.48;;;2.45;;
21591;SDS011;10958;50.892;3.992;2022-08-11T18:30:56;4.07;;;1.98;;
21591;SDS011;10958;50.892;3.992;2022-08-11T18:33:45;8.10;;;2.60;;
21591;SDS011;10958;50.892;3.992;2022-08-11T18:36:37;3.95;;;2.13;;
21591;SDS011;10958;50.892;3.992;2022-08-11T18:39:26;5.65;;;2.42;;
21591;SDS011;10958;50.892;3.992;2022-08-11T18:42:15;6.68;;;2.42;;
21591;SDS011;10958;50.892;3.992;2022-08-11T18:45:03;10.70;;;2.60;;
21591;SDS011;10958;50.892;3.992;2022-08-11T18:47:54;3.80;;;2.50;;
21591;SDS011;10958;50.892;3.992;2022-08-11T18:50:44;4.80;;;2.70;;
21591;SDS011;10958;50.892;3.992;2022-08-11T18:53:29;7.70;;;2.60;;
21591;SDS011;10958;50.892;3.992;2022-08-11T18:56:19;5.18;;;2.90;;
21591;SDS011;10958;50.892;3.992;2022-08-11T18:59:05;4.75;;;2.42;;
21591;SDS011;10958;50.892;3.992;2022-08-11T19:01:52;4.95;;;2.40;;
21591;SDS011;10958;50.892;3.992;2022-08-11T19:04:38;7.15;;;2.45;;
21591;SDS011;10958;50.892;3.992;2022-08-11T19:07:23;5.95;;;2.70;;
21591;SDS011;10958;50.892;3.992;2022-08-11T19:10:09;4.53;;;2.65;;
21591;SDS011;10958;50.892;3.992;2022-08-11T19:12:54;6.20;;;2.65;;
21591;SDS011;10958;50.892;3.992;2022-08-11T19:15:39;2.65;;;2.28;;
21591;SDS011;10958;50.892;3.992;2022-08-11T19:18:26;6.15;;;2.30;;
21591;SDS011;10958;50.892;3.992;2022-08-11T19:21:12;4.97;;;2.85;;
21591;SDS011;10958;50.892;3.992;2022-08-11T19:23:59;4.93;;;2.50;;
21591;SDS011;10958;50.892;3.992;2022-08-11T19:26:46;5.55;;;2.85;;
21591;SDS011;10958;50.892;3.992;2022-08-11T19:29:32;7.53;;;2.70;;
21591;SDS011;10958;50.892;3.992;2022-08-11T19:32:18;3.65;;;2.95;;
21591;SDS011;10958;50.892;3.992;2022-08-11T19:35:03;4.07;;;2.50;;
21591;SDS011;10958;50.892;3.992;2022-08-11T19:37:49;5.15;;;2.70;;
21591;SDS011;10958;50.892;3.992;2022-08-11T19:40:36;5.70;;;3.03;;
21591;SDS011;10958;50.892;3.992;2022-08-11T19:43:22;6.70;;;2.65;;
21591;SDS011;10958;50.892;3.992;2022-08-11T19:46:09;5.75;;;3.10;;
21591;SDS011;10958;50.892;3.992;2022-08-11T19:48:54;6.80;;;2.70;;
21591;SDS011;10958;50.892;3.992;2022-08-11T19:51:39;7.57;;;2.95;;
21591;SDS011;10958;50.892;3.992;2022-08-11T19:54:27;8.35;;;2.70;;
21591;SDS011;10958;50.892;3.992;2022-08-11T19:57:14;4.75;;;2.60;;
21591;SDS011;10958;50.892;3.992;2022-08-11T20:00:00;11.10;;;3.13;;
21591;SDS011;10958;50.892;3.992;2022-08-11T20:02:47;4.43;;;2.83;;
21591;SDS011;10958;50.892;3.992;2022-08-11T20:05:31;4.45;;;3.30;;
21591;SDS011;10958;50.892;3.992;2022-08-11T20:08:17;8.00;;;3.38;;
21591;SDS011;10958;50.892;3.992;2022-08-11T20:11:04;4.60;;;2.50;;
21591;SDS011;10958;50.892;3.992;2022-08-11T20:13:49;5.03;;;2.92;;
21591;SDS011;10958;50.892;3.992;2022-08-11T20:16:34;5.10;;;2.80;;
21591;SDS011;10958;50.892;3.992;2022-08-11T20:19:20;7.80;;;2.70;;
21591;SDS011;10958;50.892;3.992;2022-08-11T20:22:07;4.38;;;2.88;;
21591;SDS011;10958;50.892;3.992;2022-08-11T20:24:53;4.95;;;2.92;;
21591;SDS011;10958;50.892;3.992;2022-08-11T20:27:38;5.93;;;3.17;;
21591;SDS011;10958;50.892;3.992;2022-08-11T20:30:27;7.13;;;3.22;;
21591;SDS011;10958;50.892;3.992;2022-08-11T20:33:13;8.23;;;3.13;;
21591;SDS011;10958;50.892;3.992;2022-08-11T20:35:58;5.57;;;2.83;;
21591;SDS011;10958;50.892;3.992;2022-08-11T20:38:44;5.78;;;3.03;;
21591;SDS011;10958;50.892;3.992;2022-08-11T20:41:31;5.75;;;3.10;;
21591;SDS011;10958;50.892;3.992;2022-08-11T20:44:16;7.13;;;3.10;;